createdAt,value
2022-08-16T00:01:40.795Z,19.23
2022-08-16T00:04:12.046Z,16.05
2022-08-16T00:06:46.454Z,18.95
2022-08-16T00:09:19.902Z,16.58
2022-08-16T00:11:52.594Z,16.42
2022-08-16T00:14:30.443Z,16.20
2022-08-16T00:17:18.590Z,17.88
2022-08-16T00:19:53.633Z,16.60
2022-08-16T00:22:25.451Z,15.07
2022-08-16T00:24:57.605Z,13.68
2022-08-16T00:27:30.773Z,14.85
2022-08-16T00:30:19.154Z,17.10
2022-08-16T00:32:53.885Z,14.73
2022-08-16T00:35:30.045Z,14.25
2022-08-16T00:38:41.392Z,15.13
2022-08-16T00:40:56.693Z,14.48
2022-08-16T00:43:40.774Z,16.88
2022-08-16T00:46:34.890Z,16.63
2022-08-16T00:49:17.451Z,16.80
2022-08-16T00:51:53.797Z,17.40
2022-08-16T00:54:29.105Z,18.63
2022-08-16T00:57:02.827Z,22.88
2022-08-16T00:59:50.722Z,14.63
2022-08-16T01:02:30.204Z,15.63
2022-08-16T01:05:11.152Z,20.10
2022-08-16T01:07:51.930Z,17.00
2022-08-16T01:10:32.150Z,15.07
2022-08-16T01:13:12.477Z,16.55
2022-08-16T01:15:54.908Z,17.15
2022-08-16T01:18:39.178Z,16.25
2022-08-16T01:21:24.235Z,17.75
2022-08-16T01:24:53.626Z,16.38
2022-08-16T01:27:14.991Z,18.20
2022-08-16T01:29:58.196Z,16.88
2022-08-16T01:32:34.196Z,16.98
2022-08-16T01:35:18.601Z,17.38
2022-08-16T01:37:52.986Z,19.77
2022-08-16T01:40:33.839Z,18.63
2022-08-16T01:43:04.715Z,19.15
2022-08-16T01:45:40.875Z,19.25
2022-08-16T01:48:20.391Z,20.13
2022-08-16T01:51:08.278Z,18.38
2022-08-16T01:53:42.419Z,17.45
2022-08-16T01:56:26.016Z,23.15
2022-08-16T01:59:01.122Z,17.38
2022-08-16T02:01:31.952Z,18.52
2022-08-16T02:04:10.590Z,20.75
2022-08-16T02:06:46.829Z,19.27
2022-08-16T02:09:24.014Z,19.70
2022-08-16T02:12:49.795Z,21.30
2022-08-16T02:15:00.985Z,18.83
2022-08-16T02:17:31.789Z,21.55
2022-08-16T02:20:02.962Z,15.95
2022-08-16T02:22:43.382Z,17.02
2022-08-16T02:25:18.308Z,20.70
2022-08-16T02:27:53.189Z,20.15
2022-08-16T02:30:35.733Z,17.63
2022-08-16T02:33:08.080Z,22.85
2022-08-16T02:35:54.246Z,21.17
2022-08-16T02:38:33.674Z,18.00
2022-08-16T02:41:09.671Z,18.70
2022-08-16T02:43:45.084Z,19.23
2022-08-16T02:46:33.344Z,23.50
2022-08-16T02:49:05.830Z,21.90
2022-08-16T02:51:38.589Z,22.42
2022-08-16T02:54:11.857Z,19.30
2022-08-16T02:56:49.465Z,26.88
2022-08-16T02:59:21.160Z,31.90
2022-08-16T03:01:51.082Z,24.77
2022-08-16T03:04:46.284Z,22.20
2022-08-16T03:07:27.582Z,20.90
2022-08-16T03:10:00.599Z,21.90
2022-08-16T03:12:36.764Z,21.67
2022-08-16T03:15:12.901Z,22.57
2022-08-16T03:17:53.359Z,21.33
2022-08-16T03:20:31.830Z,22.17
2022-08-16T03:23:06.740Z,20.90
2022-08-16T03:25:41.063Z,18.43
2022-08-16T03:28:17.257Z,19.83
2022-08-16T03:30:52.760Z,23.27
2022-08-16T03:33:26.772Z,16.30
2022-08-16T03:36:30.063Z,20.73
2022-08-16T03:38:56.283Z,22.87
2022-08-16T03:41:29.593Z,19.97
2022-08-16T03:44:44.158Z,24.07
2022-08-16T03:47:10.562Z,22.60
2022-08-16T03:49:42.443Z,20.67
2022-08-16T03:52:13.751Z,19.17
2022-08-16T03:54:53.704Z,19.33
2022-08-16T03:57:31.705Z,21.73
2022-08-16T04:00:20.820Z,20.33
2022-08-16T04:03:09.147Z,28.90
2022-08-16T04:05:54.067Z,21.70
2022-08-16T04:08:27.048Z,23.73
2022-08-16T04:11:00.992Z,30.37
2022-08-16T04:14:01.277Z,31.43
2022-08-16T04:16:26.322Z,25.57
2022-08-16T04:19:02.119Z,31.10
2022-08-16T04:21:45.883Z,28.23
2022-08-16T04:24:28.821Z,28.43
2022-08-16T04:27:00.412Z,26.20
2022-08-16T04:29:43.972Z,29.27
2022-08-16T04:32:17.435Z,33.90
2022-08-16T04:34:52.015Z,30.92
2022-08-16T04:37:23.791Z,32.83
2022-08-16T04:40:05.653Z,32.27
2022-08-16T04:42:38.822Z,36.47
2022-08-16T04:45:13.503Z,35.73
2022-08-16T04:47:48.619Z,31.07
2022-08-16T04:50:30.734Z,32.23
2022-08-16T04:53:03.630Z,35.35
2022-08-16T04:55:42.205Z,32.87
2022-08-16T04:58:45.225Z,33.60
2022-08-16T05:01:03.350Z,35.13
2022-08-16T05:03:41.826Z,35.27
2022-08-16T05:06:16.478Z,32.20
2022-08-16T05:08:51.628Z,35.47
2022-08-16T05:11:32.143Z,35.60
2022-08-16T05:14:06.908Z,35.92
2022-08-16T05:16:41.063Z,34.72
2022-08-16T05:19:16.502Z,29.65
2022-08-16T05:22:08.077Z,31.58
2022-08-16T05:24:54.977Z,36.05
2022-08-16T05:27:25.349Z,31.30
2022-08-16T05:30:01.963Z,27.88
2022-08-16T05:32:50.318Z,31.63
2022-08-16T05:35:21.913Z,33.17
2022-08-16T05:38:32.665Z,31.27
2022-08-16T05:41:07.492Z,42.55
2022-08-16T05:43:46.950Z,26.38
2022-08-16T05:46:30.300Z,24.90
2022-08-16T05:49:22.550Z,16.55
2022-08-16T05:52:00.560Z,18.33
2022-08-16T05:54:35.757Z,19.42
2022-08-16T05:57:07.218Z,15.27
2022-08-16T05:59:50.580Z,17.10
2022-08-16T06:02:35.633Z,16.48
2022-08-16T06:05:07.413Z,15.32
2022-08-16T06:07:42.500Z,13.52
2022-08-16T06:10:32.952Z,16.08
2022-08-16T06:13:05.257Z,19.73
2022-08-16T06:15:36.762Z,18.27
2022-08-16T06:18:13.826Z,22.67
2022-08-16T06:20:55.127Z,17.23
2022-08-16T06:23:26.677Z,13.95
2022-08-16T06:26:12.004Z,14.25
2022-08-16T06:28:47.121Z,18.55
2022-08-16T06:31:24.623Z,11.55
2022-08-16T06:34:00.959Z,11.60
2022-08-16T06:36:37.316Z,13.00
2022-08-16T06:39:27.126Z,13.93
2022-08-16T06:42:02.623Z,14.07
2022-08-16T06:44:52.578Z,20.40
2022-08-16T06:47:53.523Z,19.20
2022-08-16T06:50:29.970Z,9.73
2022-08-16T06:53:08.959Z,11.52
2022-08-16T06:55:54.010Z,10.65
2022-08-16T06:58:31.518Z,12.45
2022-08-16T07:01:15.021Z,14.93
2022-08-16T07:03:55.542Z,13.85
2022-08-16T07:06:35.011Z,13.90
2022-08-16T07:09:29.775Z,17.42
2022-08-16T07:12:06.157Z,9.38
2022-08-16T07:14:42.754Z,9.98
2022-08-16T07:17:19.714Z,14.48
2022-08-16T07:20:30.240Z,13.45
2022-08-16T07:23:01.697Z,11.27
2022-08-16T07:25:40.534Z,10.63
2022-08-16T07:28:20.992Z,12.02
2022-08-16T07:31:00.267Z,9.63
2022-08-16T07:33:51.749Z,9.75
2022-08-16T07:36:30.875Z,16.70
2022-08-16T07:39:02.143Z,9.50
2022-08-16T07:41:39.332Z,13.48
2022-08-16T07:44:16.227Z,12.48
2022-08-16T07:46:55.604Z,13.07
2022-08-16T07:49:53.258Z,12.27
2022-08-16T07:52:30.172Z,16.00
2022-08-16T07:55:02.397Z,12.13
2022-08-16T07:57:37.961Z,17.80
2022-08-16T08:00:18.798Z,8.23
2022-08-16T08:02:53.935Z,10.98
2022-08-16T08:05:35.764Z,10.10
2022-08-16T08:08:11.893Z,10.00
2022-08-16T08:11:02.128Z,11.93
2022-08-16T08:13:44.561Z,10.00
2022-08-16T08:16:30.560Z,10.65
2022-08-16T08:19:07.623Z,8.93
2022-08-16T08:22:01.086Z,10.88
2022-08-16T08:24:59.022Z,12.55
2022-08-16T08:27:57.620Z,12.77
2022-08-16T08:30:51.658Z,7.18
2022-08-16T08:33:32.229Z,8.95
2022-08-16T08:36:12.733Z,9.00
2022-08-16T08:38:54.504Z,10.32
2022-08-16T08:41:29.651Z,9.80
2022-08-16T08:44:28.536Z,8.30
2022-08-16T08:47:01.510Z,12.70
2022-08-16T08:49:46.630Z,8.65
2022-08-16T08:52:34.942Z,8.25
2022-08-16T08:55:11.812Z,11.73
2022-08-16T08:57:48.211Z,9.52
2022-08-16T09:00:50.415Z,11.77
2022-08-16T09:03:23.795Z,11.82
2022-08-16T09:05:58.199Z,21.92
2022-08-16T09:08:35.117Z,10.93
2022-08-16T09:11:11.302Z,10.43
2022-08-16T09:13:47.390Z,8.80
2022-08-16T09:17:03.176Z,7.80
2022-08-16T09:19:11.698Z,23.95
2022-08-16T09:21:43.263Z,7.18
2022-08-16T09:24:39.138Z,11.80
2022-08-16T09:27:10.262Z,9.63
2022-08-16T09:29:44.794Z,6.63
2022-08-16T09:32:28.452Z,8.13
2022-08-16T09:34:58.839Z,7.88
2022-08-16T09:37:30.157Z,11.27
2022-08-16T09:40:32.351Z,6.93
2022-08-16T09:43:00.982Z,7.05
2022-08-16T09:45:31.759Z,9.88
2022-08-16T09:48:01.825Z,7.03
2022-08-16T09:50:39.172Z,7.03
2022-08-16T09:53:15.422Z,9.32
2022-08-16T09:55:50.354Z,6.50
2022-08-16T09:58:40.660Z,6.32
2022-08-16T10:01:11.194Z,5.90
2022-08-16T10:04:01.944Z,10.90
2022-08-16T10:06:33.859Z,6.03
2022-08-16T10:09:17.006Z,8.30
2022-08-16T10:12:10.939Z,5.70
2022-08-16T10:14:47.453Z,7.93
2022-08-16T10:17:17.504Z,8.95
2022-08-16T10:19:50.223Z,7.07
2022-08-16T10:22:19.513Z,5.85
2022-08-16T10:24:55.780Z,8.60
2022-08-16T10:27:56.974Z,8.38
2022-08-16T10:30:25.040Z,8.82
2022-08-16T10:32:55.881Z,9.15
2022-08-16T10:35:32.782Z,6.97
2022-08-16T10:38:06.823Z,5.82
2022-08-16T10:40:41.354Z,8.48
2022-08-16T10:43:18.443Z,5.68
2022-08-16T10:46:00.413Z,8.07
2022-08-16T10:48:31.383Z,9.27
2022-08-16T10:51:01.331Z,11.77
2022-08-16T10:53:34.078Z,8.95
2022-08-16T10:56:52.012Z,9.23
2022-08-16T10:59:32.716Z,13.13
2022-08-16T11:10:20.417Z,6.88
2022-08-16T11:12:52.855Z,5.82
2022-08-16T11:15:26.206Z,5.63
2022-08-16T11:20:50.495Z,9.25
2022-08-16T11:23:20.266Z,8.60
2022-08-16T11:26:20.536Z,7.95
2022-08-16T11:31:33.554Z,5.95
2022-08-16T11:34:04.596Z,5.88
2022-08-16T11:36:34.197Z,10.15
2022-08-16T11:39:05.370Z,9.85
2022-08-16T11:41:40.157Z,7.30
2022-08-16T11:44:13.603Z,5.97
2022-08-16T11:46:51.347Z,6.00
2022-08-16T11:49:25.483Z,6.32
2022-08-16T11:51:56.383Z,8.20
2022-08-16T11:54:33.303Z,5.97
2022-08-16T11:57:09.003Z,11.73
2022-08-16T11:59:40.204Z,7.38
2022-08-16T12:02:31.351Z,9.90
2022-08-16T12:05:01.149Z,7.93
2022-08-16T12:07:33.238Z,8.35
2022-08-16T12:10:03.275Z,9.52
2022-08-16T12:12:32.877Z,5.75
2022-08-16T12:15:03.562Z,5.15
2022-08-16T12:17:35.076Z,25.13
2022-08-16T12:20:14.056Z,9.05
2022-08-16T12:22:48.898Z,6.28
2022-08-16T12:25:21.400Z,5.57
2022-08-16T12:27:51.404Z,5.60
2022-08-16T12:30:26.976Z,8.38
2022-08-16T12:33:04.472Z,8.48
2022-08-16T12:35:38.746Z,5.80
2022-08-16T12:38:41.098Z,7.93
2022-08-16T12:40:58.448Z,6.47
2022-08-16T12:43:31.070Z,9.15
2022-08-16T12:46:01.873Z,12.40
2022-08-16T12:48:52.684Z,6.13
2022-08-16T12:51:24.522Z,6.10
2022-08-16T12:54:02.791Z,11.05
2022-08-16T12:56:38.812Z,9.88
2022-08-16T12:59:13.919Z,10.95
2022-08-16T13:01:50.657Z,10.45
2022-08-16T13:04:25.887Z,5.35
2022-08-16T13:06:56.034Z,5.18
2022-08-16T13:09:28.672Z,4.97
2022-08-16T13:12:04.369Z,6.78
2022-08-16T13:14:40.127Z,5.70
2022-08-16T13:17:18.547Z,8.90
2022-08-16T13:20:07.082Z,7.88
2022-08-16T13:22:37.843Z,6.88
2022-08-16T13:25:08.744Z,4.95
2022-08-16T13:28:01.788Z,7.53
2022-08-16T13:30:37.317Z,5.30
2022-08-16T13:33:13.445Z,8.48
2022-08-16T13:35:56.140Z,10.18
2022-08-16T13:38:37.189Z,7.05
2022-08-16T13:41:08.906Z,12.98
2022-08-16T13:43:39.324Z,4.80
2022-08-16T13:46:09.027Z,8.85
2022-08-16T13:48:44.089Z,5.05
2022-08-16T13:51:18.035Z,7.13
2022-08-16T13:53:49.523Z,6.60
2022-08-16T13:56:25.001Z,8.85
2022-08-16T13:58:55.640Z,8.93
2022-08-16T14:01:25.585Z,4.88
2022-08-16T14:03:57.978Z,5.60
2022-08-16T14:06:29.617Z,6.70
2022-08-16T14:09:06.599Z,5.68
2022-08-16T14:11:36.964Z,7.35
2022-08-16T14:14:07.410Z,12.50
2022-08-16T14:16:40.271Z,7.47
2022-08-16T14:19:12.543Z,6.25
2022-08-16T14:21:55.899Z,10.10
2022-08-16T14:24:31.937Z,9.98
2022-08-16T14:27:04.380Z,5.35
2022-08-16T14:29:35.164Z,6.28
2022-08-16T14:32:13.116Z,5.53
2022-08-16T14:34:51.898Z,8.02
2022-08-16T14:37:27.204Z,5.97
2022-08-16T14:39:57.579Z,7.28
2022-08-16T14:42:28.186Z,10.23
2022-08-16T14:45:00.239Z,5.68
2022-08-16T14:47:31.616Z,7.82
2022-08-16T14:50:05.664Z,8.45
2022-08-16T14:52:56.481Z,7.55
2022-08-16T14:55:26.850Z,6.63
2022-08-16T14:57:56.700Z,6.97
2022-08-16T15:00:34.627Z,9.27
2022-08-16T15:03:09.780Z,5.78
2022-08-16T15:05:42.836Z,7.63
2022-08-16T15:08:15.568Z,8.60
2022-08-16T15:10:55.838Z,7.28
2022-08-16T15:13:29.766Z,6.90
2022-08-16T15:16:02.847Z,6.05
2022-08-16T15:18:33.769Z,23.63
2022-08-16T15:21:05.895Z,10.25
2022-08-16T15:23:40.436Z,6.10
2022-08-16T15:26:21.525Z,7.53
2022-08-16T15:29:02.318Z,7.50
2022-08-16T15:31:34.582Z,10.10
2022-08-16T15:34:06.182Z,5.40
2022-08-16T15:36:35.856Z,6.30
2022-08-16T15:39:30.346Z,7.18
2022-08-16T15:42:11.263Z,7.40
2022-08-16T15:44:58.608Z,6.35
2022-08-16T15:47:29.999Z,5.72
2022-08-16T15:49:59.428Z,7.00
2022-08-16T15:52:34.065Z,25.73
2022-08-16T15:55:23.795Z,4.80
2022-08-16T15:57:59.191Z,7.57
2022-08-16T16:00:28.575Z,6.93
2022-08-16T16:03:08.622Z,6.28
2022-08-16T16:05:39.644Z,11.48
2022-08-16T16:08:11.387Z,16.77
2022-08-16T16:10:54.156Z,10.18
2022-08-16T16:13:25.072Z,10.13
2022-08-16T16:16:01.749Z,5.07
2022-08-16T16:18:33.038Z,12.05
2022-08-16T16:21:05.818Z,5.43
2022-08-16T16:23:41.272Z,12.13
2022-08-16T16:26:26.962Z,9.13
2022-08-16T16:29:07.986Z,17.70
2022-08-16T16:31:42.028Z,8.25
2022-08-16T16:34:14.316Z,19.63
2022-08-16T16:36:48.464Z,9.88
2022-08-16T16:39:19.809Z,12.07
2022-08-16T16:41:54.144Z,39.85
2022-08-16T16:44:33.520Z,24.50
2022-08-16T16:47:07.156Z,14.98
2022-08-16T16:49:41.698Z,25.85
2022-08-16T16:52:31.323Z,19.63
2022-08-16T16:55:08.839Z,12.15
2022-08-16T16:58:17.729Z,10.93
2022-08-16T17:00:59.255Z,18.25
2022-08-16T17:03:29.151Z,44.83
2022-08-16T17:06:08.926Z,64.68
2022-08-16T17:08:41.595Z,81.38
2022-08-16T17:11:12.087Z,57.35
2022-08-16T17:13:45.004Z,48.28
2022-08-16T17:16:19.072Z,36.05
2022-08-16T17:19:17.153Z,28.15
2022-08-16T17:21:44.152Z,25.08
2022-08-16T17:24:18.009Z,16.73
2022-08-16T17:26:49.609Z,23.63
2022-08-16T17:29:30.808Z,16.48
2022-08-16T17:32:33.193Z,17.23
2022-08-16T17:34:52.319Z,14.80
2022-08-16T17:37:42.447Z,14.73
2022-08-16T17:40:23.269Z,8.43
2022-08-16T17:43:04.838Z,11.13
2022-08-16T17:45:37.370Z,9.30
2022-08-16T17:48:07.436Z,19.13
2022-08-16T17:50:36.934Z,23.33
2022-08-16T17:53:09.475Z,19.73
2022-08-16T17:55:42.662Z,22.77
2022-08-16T17:58:22.821Z,43.92
2022-08-16T18:01:00.191Z,66.82
2022-08-16T18:04:06.865Z,63.00
2022-08-16T18:06:29.352Z,49.67
2022-08-16T18:09:02.704Z,32.05
2022-08-16T18:11:43.239Z,26.40
2022-08-16T18:14:19.383Z,17.50
2022-08-16T18:17:10.781Z,16.52
2022-08-16T18:19:40.678Z,15.50
2022-08-16T18:22:27.001Z,28.95
2022-08-16T18:25:00.470Z,18.73
2022-08-16T18:27:33.241Z,31.02
2022-08-16T18:30:05.118Z,20.88
2022-08-16T18:32:38.163Z,35.53
2022-08-16T18:35:09.265Z,29.50
2022-08-16T18:37:40.318Z,26.88
2022-08-16T18:40:11.176Z,16.67
2022-08-16T18:42:41.570Z,16.40
2022-08-16T18:45:17.786Z,17.80
2022-08-16T18:47:50.350Z,14.18
2022-08-16T18:50:22.859Z,13.93
2022-08-16T18:52:54.163Z,17.23
2022-08-16T18:55:29.142Z,14.25
2022-08-16T18:58:04.358Z,22.75
2022-08-16T19:00:50.663Z,24.58
2022-08-16T19:03:31.504Z,36.63
2022-08-16T19:06:05.123Z,21.73
2022-08-16T19:08:36.570Z,25.60
2022-08-16T19:11:07.393Z,23.80
2022-08-16T19:13:38.080Z,22.48
2022-08-16T19:16:08.681Z,17.70
2022-08-16T19:18:39.550Z,18.25
2022-08-16T19:21:14.901Z,16.67
2022-08-16T19:23:46.902Z,14.30
2022-08-16T19:26:24.898Z,13.85
2022-08-16T19:28:59.558Z,17.75
2022-08-16T19:31:38.477Z,16.33
2022-08-16T19:34:12.593Z,14.10
2022-08-16T19:36:44.315Z,21.88
2022-08-16T19:39:18.998Z,23.30
2022-08-16T19:41:54.710Z,26.50
2022-08-16T19:44:28.770Z,44.83
2022-08-16T19:46:59.966Z,34.58
2022-08-16T19:49:33.109Z,52.78
2022-08-16T19:52:15.266Z,38.42
2022-08-16T19:54:46.644Z,22.55
2022-08-16T19:57:17.678Z,23.40
2022-08-16T19:59:48.205Z,17.75
2022-08-16T20:02:25.621Z,17.38
2022-08-16T20:05:12.901Z,21.80
2022-08-16T20:07:43.583Z,22.08
2022-08-16T20:10:17.759Z,17.17
2022-08-16T20:13:01.691Z,21.33
2022-08-16T20:15:40.710Z,15.48
2022-08-16T20:18:24.876Z,15.63
2022-08-16T20:20:56.424Z,21.23
2022-08-16T20:23:26.509Z,18.42
2022-08-16T20:25:57.509Z,15.75
2022-08-16T20:28:51.003Z,22.48
2022-08-16T20:31:18.067Z,25.83
2022-08-16T20:33:48.731Z,24.90
2022-08-16T20:36:21.763Z,18.70
2022-08-16T20:38:55.062Z,27.67
2022-08-16T20:44:17.425Z,30.15
2022-08-16T20:46:53.895Z,18.85
2022-08-16T20:49:29.548Z,18.80
2022-08-16T20:52:02.732Z,21.20
2022-08-16T20:54:33.312Z,27.25
2022-08-16T20:57:03.818Z,20.58
2022-08-16T20:59:34.224Z,19.10
2022-08-16T21:02:04.600Z,18.63
2022-08-16T21:04:34.533Z,19.05
2022-08-16T21:07:07.989Z,13.93
2022-08-16T21:09:39.426Z,17.80
2022-08-16T21:12:17.981Z,19.45
2022-08-16T21:14:48.345Z,17.80
2022-08-16T21:17:23.707Z,18.25
2022-08-16T21:19:54.591Z,19.63
2022-08-16T21:22:27.441Z,17.75
2022-08-16T21:24:59.721Z,15.07
2022-08-16T21:27:29.723Z,22.48
2022-08-16T21:30:01.219Z,18.88
2022-08-16T21:32:34.947Z,16.40
2022-08-16T21:35:12.256Z,14.50
2022-08-16T21:37:44.535Z,23.30
2022-08-16T21:40:36.362Z,19.95
2022-08-16T21:43:13.031Z,15.55
2022-08-16T21:45:46.586Z,15.93
2022-08-16T21:48:19.031Z,22.92
2022-08-16T21:51:06.791Z,14.90
2022-08-16T21:53:42.426Z,18.27
2022-08-16T21:56:16.712Z,22.50
2022-08-16T21:58:52.823Z,20.58
2022-08-16T22:01:27.039Z,19.75
2022-08-16T22:04:35.514Z,19.40
2022-08-16T22:06:51.076Z,17.65
2022-08-16T22:09:23.831Z,22.83
2022-08-16T22:11:55.528Z,21.48
2022-08-16T22:14:26.582Z,23.90
2022-08-16T22:16:57.291Z,21.58
2022-08-16T22:19:30.618Z,19.40
2022-08-16T22:22:07.110Z,22.05
2022-08-16T22:24:38.813Z,15.75
2022-08-16T22:27:09.859Z,21.05
2022-08-16T22:29:42.298Z,19.73
2022-08-16T22:32:15.638Z,19.38
2022-08-16T22:34:54.345Z,17.92
2022-08-16T22:37:33.297Z,17.83
2022-08-16T22:40:21.419Z,19.85
2022-08-16T22:42:56.019Z,21.00
2022-08-16T22:45:26.565Z,17.77
2022-08-16T22:47:58.106Z,19.70
2022-08-16T22:50:28.430Z,27.17
2022-08-16T22:53:00.688Z,18.95
2022-08-16T22:55:32.426Z,19.70
2022-08-16T22:58:10.310Z,18.70
2022-08-16T23:00:40.357Z,21.35
2022-08-16T23:03:15.008Z,18.80
2022-08-16T23:05:50.415Z,19.63
2022-08-16T23:08:32.251Z,20.23
2022-08-16T23:11:12.569Z,21.38
2022-08-16T23:13:52.476Z,22.63
2022-08-16T23:16:32.389Z,23.58
2022-08-16T23:19:06.719Z,25.45
2022-08-16T23:21:41.604Z,23.05
2022-08-16T23:24:14.857Z,22.95
2022-08-16T23:26:49.026Z,22.17
2022-08-16T23:29:26.699Z,19.15
2022-08-16T23:32:02.387Z,25.77
2022-08-16T23:34:32.857Z,22.17
2022-08-16T23:37:04.118Z,19.65
2022-08-16T23:39:33.764Z,19.77
2022-08-16T23:42:53.013Z,22.38
2022-08-16T23:45:06.759Z,19.58
2022-08-16T23:47:38.287Z,20.38
2022-08-16T23:50:13.868Z,18.65
2022-08-16T23:52:59.400Z,18.52
2022-08-16T23:55:31.240Z,20.25
2022-08-16T23:58:02.387Z,23.17
